createdAt,value
2019-01-22T00:02:16.055Z,101512.37
2019-01-22T00:04:44.514Z,101515.91
2019-01-22T00:07:13.385Z,101516.52
2019-01-22T00:09:42.018Z,101515.24
2019-01-22T00:12:10.491Z,101508.09
2019-01-22T00:14:38.987Z,101516.23
2019-01-22T00:17:07.454Z,101516.23
2019-01-22T00:19:35.916Z,101500.92
2019-01-22T00:22:04.672Z,101505.15
2019-01-22T00:24:33.323Z,101504.27
2019-01-22T00:27:01.795Z,101508.09
2019-01-22T00:29:30.293Z,101497.38
2019-01-22T00:31:58.831Z,101496.50
2019-01-22T00:34:27.294Z,101500.72
2019-01-22T00:36:55.799Z,101498.94
2019-01-22T00:39:24.267Z,101500.52
2019-01-22T00:41:52.736Z,101494.91
2019-01-22T00:44:21.243Z,101496.58
2019-01-22T00:46:49.725Z,101486.85
2019-01-22T00:49:18.190Z,101483.94
2019-01-22T00:51:47.079Z,101486.48
2019-01-22T00:54:15.537Z,101484.81
2019-01-22T00:56:44.015Z,101491.28
2019-01-22T00:59:12.499Z,101488.84
2019-01-22T01:01:40.960Z,101493.55
2019-01-22T01:04:09.421Z,101488.45
2019-01-22T01:06:38.217Z,101485.02
2019-01-22T01:09:08.181Z,101484.02
2019-01-22T01:11:36.637Z,101484.14
2019-01-22T01:14:05.720Z,101486.29
2019-01-22T01:16:34.175Z,101482.06
2019-01-22T01:19:02.647Z,101483.34
2019-01-22T01:21:31.243Z,101491.52
2019-01-22T01:23:59.711Z,101482.06
2019-01-22T01:26:28.184Z,101480.70
2019-01-22T01:28:56.683Z,101481.07
2019-01-22T01:31:25.145Z,101480.70
2019-01-22T01:33:53.617Z,101482.34
2019-01-22T01:36:22.123Z,101478.64
2019-01-22T01:38:50.590Z,101475.69
2019-01-22T01:41:19.052Z,101478.64
2019-01-22T01:43:47.555Z,101474.69
2019-01-22T01:46:16.022Z,101477.05
2019-01-22T01:48:44.491Z,101477.72
2019-01-22T01:51:13.016Z,101472.62
2019-01-22T01:53:41.480Z,101466.16
2019-01-22T01:56:09.950Z,101462.97
2019-01-22T01:58:38.444Z,101463.17
2019-01-22T02:01:06.904Z,101463.84
2019-01-22T02:03:35.366Z,101466.59
2019-01-22T02:06:03.864Z,101464.33
2019-01-22T02:08:32.321Z,101461.26
2019-01-22T02:11:01.114Z,101450.09
2019-01-22T02:13:29.949Z,101448.81
2019-01-22T02:16:07.524Z,101448.02
2019-01-22T02:18:51.257Z,101432.60
2019-01-22T02:21:48.226Z,101432.91
2019-01-22T02:24:31.505Z,101432.91
2019-01-22T02:27:03.147Z,101422.40
2019-01-22T02:29:54.340Z,101417.22
2019-01-22T02:32:32.055Z,101423.08
2019-01-22T02:35:03.750Z,101424.27
2019-01-22T02:37:44.085Z,101422.79
2019-01-22T02:40:21.685Z,101425.50
2019-01-22T02:43:10.217Z,101432.08
2019-01-22T02:45:56.507Z,101421.88
2019-01-22T02:48:46.051Z,101418.81
2019-01-22T02:51:23.437Z,101423.91
2019-01-22T02:53:55.066Z,101417.05
2019-01-22T02:56:38.804Z,101413.51
2019-01-22T02:59:22.220Z,101409.96
2019-01-22T03:02:05.818Z,101414.98
2019-01-22T03:05:07.622Z,101410.24
2019-01-22T03:08:00.101Z,101413.19
2019-01-22T03:10:37.785Z,101408.88
2019-01-22T03:13:12.532Z,101404.06
2019-01-22T03:15:59.186Z,101395.53
2019-01-22T03:18:45.373Z,101390.92
2019-01-22T03:21:28.756Z,101383.66
2019-01-22T03:24:03.331Z,101380.23
2019-01-22T03:26:57.575Z,101382.51
2019-01-22T03:29:34.779Z,101377.41
2019-01-22T03:32:21.231Z,101376.61
2019-01-22T03:35:18.156Z,101376.34
2019-01-22T03:38:04.846Z,101367.41
2019-01-22T03:40:56.133Z,101369.96
2019-01-22T03:43:50.582Z,101374.86
2019-01-22T03:46:31.267Z,101367.38
2019-01-22T03:49:19.715Z,101364.74
2019-01-22T03:51:54.081Z,101362.55
2019-01-22T03:54:43.778Z,101364.23
2019-01-22T03:57:33.593Z,101363.35
2019-01-22T04:00:02.149Z,101349.33
2019-01-22T04:02:31.154Z,101359.52
2019-01-22T04:04:59.647Z,101347.38
2019-01-22T04:07:28.489Z,101352.28
2019-01-22T04:09:58.999Z,101348.97
2019-01-22T04:12:27.527Z,101346.50
2019-01-22T04:14:56.281Z,101342.00
2019-01-22T04:17:24.756Z,101332.03
2019-01-22T04:19:54.267Z,101329.08
2019-01-22T04:22:25.902Z,101327.61
2019-01-22T04:25:02.063Z,101325.57
2019-01-22T04:27:36.682Z,101323.78
2019-01-22T04:30:24.793Z,101322.91
2019-01-22T04:33:01.954Z,101326.25
2019-01-22T04:35:42.486Z,101313.38
2019-01-22T04:38:17.054Z,101311.63
2019-01-22T04:40:54.732Z,101306.89
2019-01-22T04:43:37.672Z,101316.22
2019-01-22T04:46:12.046Z,101309.84
2019-01-22T04:48:55.288Z,101311.12
2019-01-22T04:51:42.068Z,101308.56
2019-01-22T04:54:16.212Z,101311.12
2019-01-22T04:56:47.900Z,101300.44
2019-01-22T04:59:52.979Z,101301.71
2019-01-22T05:02:27.380Z,101305.34
2019-01-22T05:05:17.078Z,101307.38
2019-01-22T05:07:48.745Z,101297.98
2019-01-22T05:10:38.717Z,101307.38
2019-01-22T05:13:10.836Z,101302.80
2019-01-22T05:15:45.583Z,101298.17
2019-01-22T05:18:35.395Z,101301.80
2019-01-22T05:21:31.666Z,101301.80
2019-01-22T05:24:26.008Z,101307.01
2019-01-22T05:27:16.182Z,101296.81
2019-01-22T05:30:10.665Z,101300.16
2019-01-22T05:33:03.619Z,101301.43
2019-01-22T05:35:47.569Z,101302.19
2019-01-22T05:38:34.591Z,101299.16
2019-01-22T05:41:20.874Z,101292.79
2019-01-22T05:44:09.283Z,101297.89
2019-01-22T05:46:58.282Z,101299.25
2019-01-22T05:49:38.937Z,101295.81
2019-01-22T05:52:32.990Z,101292.39
2019-01-22T05:55:13.277Z,101293.66
2019-01-22T05:57:45.106Z,101295.34
2019-01-22T06:00:31.859Z,101293.55
2019-01-22T06:03:02.279Z,101302.47
2019-01-22T06:05:49.041Z,101303.39
2019-01-22T06:08:26.884Z,101297.02
2019-01-22T06:11:04.350Z,101300.84
2019-01-22T06:13:38.856Z,101303.47
2019-01-22T06:16:16.253Z,101294.66
2019-01-22T06:19:09.563Z,101300.35
2019-01-22T06:21:43.694Z,101288.59
2019-01-22T06:24:34.854Z,101292.50
2019-01-22T06:27:09.256Z,101294.97
2019-01-22T06:30:02.221Z,101293.10
2019-01-22T06:32:33.857Z,101292.98
2019-01-22T06:35:11.672Z,101294.06
2019-01-22T06:38:03.221Z,101298.17
2019-01-22T06:40:37.388Z,101295.51
2019-01-22T06:43:28.682Z,101298.97
2019-01-22T06:46:03.101Z,101295.14
2019-01-22T06:48:37.519Z,101295.23
2019-01-22T06:51:27.172Z,101297.02
2019-01-22T06:54:07.648Z,101292.51
2019-01-22T06:56:42.240Z,101296.02
2019-01-22T06:59:16.372Z,101295.73
2019-01-22T07:02:15.049Z,101289.08
2019-01-22T07:04:46.706Z,101291.34
2019-01-22T07:07:44.148Z,101292.81
2019-01-22T07:10:30.637Z,101289.09
2019-01-22T07:13:17.171Z,101293.91
2019-01-22T07:16:12.336Z,101287.62
2019-01-22T07:19:00.778Z,101287.73
2019-01-22T07:21:38.820Z,101297.14
2019-01-22T07:24:25.482Z,101287.81
2019-01-22T07:27:02.937Z,101284.58
2019-01-22T07:30:04.798Z,101278.31
2019-01-22T07:32:42.156Z,101281.05
2019-01-22T07:35:19.528Z,101278.62
2019-01-22T07:37:51.159Z,101273.99
2019-01-22T07:40:25.540Z,101278.02
2019-01-22T07:43:15.079Z,101266.93
2019-01-22T07:45:55.766Z,101270.87
2019-01-22T07:48:27.396Z,101266.75
2019-01-22T07:51:19.965Z,101270.77
2019-01-22T07:54:09.857Z,101268.81
2019-01-22T07:57:07.696Z,101272.94
2019-01-22T07:59:39.327Z,101276.95
2019-01-22T08:02:35.018Z,101278.42
2019-01-22T08:05:10.766Z,101276.56
2019-01-22T08:07:52.912Z,101271.36
2019-01-22T08:10:45.287Z,101268.23
2019-01-22T08:13:33.460Z,101266.34
2019-01-22T08:16:41.566Z,101268.20
2019-01-22T08:19:25.272Z,101269.66
2019-01-22T08:22:13.571Z,101263.09
2019-01-22T08:24:51.016Z,101270.36
2019-01-22T08:27:30.335Z,101268.87
2019-01-22T08:30:01.583Z,101270.33
2019-01-22T08:32:38.971Z,101266.20
2019-01-22T08:35:28.420Z,101263.66
2019-01-22T08:38:21.001Z,101260.63
2019-01-22T08:41:29.857Z,101266.89
2019-01-22T08:44:03.987Z,101254.93
2019-01-22T08:46:52.812Z,101259.53
2019-01-22T08:49:36.476Z,101260.73
2019-01-22T08:52:20.253Z,101261.90
2019-01-22T08:55:09.785Z,101258.58
2019-01-22T08:57:53.176Z,101258.66
2019-01-22T09:00:30.490Z,101250.30
2019-01-22T09:03:21.701Z,101247.85
2019-01-22T09:05:59.251Z,101247.56
2019-01-22T09:08:39.880Z,101240.37
2019-01-22T09:11:17.270Z,101241.25
2019-01-22T09:14:08.341Z,101252.55
2019-01-22T09:16:51.816Z,101248.91
2019-01-22T09:19:32.314Z,101241.72
2019-01-22T09:22:32.797Z,101247.52
2019-01-22T09:25:16.455Z,101248.50
2019-01-22T09:27:48.093Z,101246.52
2019-01-22T09:30:36.214Z,101252.88
2019-01-22T09:33:07.862Z,101248.67
2019-01-22T09:35:42.344Z,101246.30
2019-01-22T09:38:11.442Z,101244.61
2019-01-22T09:40:39.986Z,101242.94
2019-01-22T09:43:09.213Z,101241.59
2019-01-22T09:45:37.682Z,101241.95
2019-01-22T09:48:06.152Z,101241.95
2019-01-22T09:50:34.670Z,101241.08
2019-01-22T09:53:03.135Z,101239.33
2019-01-22T09:55:31.603Z,101233.41
2019-01-22T09:58:00.119Z,101229.18
2019-01-22T10:00:28.639Z,101230.97
2019-01-22T10:02:57.102Z,101222.09
2019-01-22T10:05:25.604Z,101225.56
2019-01-22T10:07:54.074Z,101222.50
2019-01-22T10:10:23.476Z,101224.47
2019-01-22T10:12:51.970Z,101214.95
2019-01-22T10:15:21.984Z,101214.38
2019-01-22T10:17:50.517Z,101207.52
2019-01-22T10:20:21.522Z,101210.06
2019-01-22T10:22:50.520Z,101206.70
2019-01-22T10:25:18.979Z,101208.67
2019-01-22T10:27:47.703Z,101209.42
2019-01-22T10:30:21.991Z,101212.73
2019-01-22T10:32:50.473Z,101207.83
2019-01-22T10:35:18.983Z,101198.55
2019-01-22T10:37:47.451Z,101201.52
2019-01-22T10:40:18.759Z,101202.39
2019-01-22T10:42:47.266Z,101199.47
2019-01-22T10:45:17.562Z,101195.70
2019-01-22T10:47:46.093Z,101192.45
2019-01-22T10:50:20.132Z,101194.58
2019-01-22T10:52:48.604Z,101193.47
2019-01-22T10:55:17.318Z,101187.25
2019-01-22T10:57:45.913Z,101182.72
2019-01-22T11:00:23.162Z,101177.94
2019-01-22T11:02:51.649Z,101177.43
2019-01-22T11:05:26.247Z,101177.94
2019-01-22T11:07:54.711Z,101176.33
2019-01-22T11:10:23.235Z,101168.28
2019-01-22T11:12:51.695Z,101172.02
2019-01-22T11:15:20.145Z,101167.51
2019-01-22T11:17:48.634Z,101159.50
2019-01-22T11:20:22.815Z,101150.55
2019-01-22T11:22:51.274Z,101157.92
2019-01-22T11:25:21.827Z,101152.98
2019-01-22T11:27:50.297Z,101151.16
2019-01-22T11:30:24.404Z,101152.64
2019-01-22T11:32:52.897Z,101149.18
2019-01-22T11:35:23.111Z,101144.70
2019-01-22T11:37:52.210Z,101148.27
2019-01-22T11:40:29.973Z,101147.77
2019-01-22T11:42:58.441Z,101140.20
2019-01-22T11:45:26.967Z,101138.31
2019-01-22T11:47:55.465Z,101134.48
2019-01-22T11:50:23.997Z,101133.50
2019-01-22T11:52:52.524Z,101131.95
2019-01-22T11:55:21.037Z,101118.47
2019-01-22T11:57:49.491Z,101123.23
2019-01-22T12:00:31.147Z,101123.83
2019-01-22T12:02:59.598Z,101130.06
2019-01-22T12:05:28.069Z,101131.42
2019-01-22T12:07:56.572Z,101130.56
2019-01-22T12:10:25.105Z,101131.16
2019-01-22T12:12:53.573Z,101123.42
2019-01-22T12:15:22.124Z,101123.42
2019-01-22T12:17:50.570Z,101119.47
2019-01-22T12:20:24.488Z,101115.92
2019-01-22T12:22:53.003Z,101107.33
2019-01-22T12:25:21.470Z,101097.69
2019-01-22T12:27:49.934Z,101106.80
2019-01-22T12:30:21.611Z,101104.75
2019-01-22T12:32:51.123Z,101097.56
2019-01-22T12:35:19.653Z,101092.38
2019-01-22T12:37:48.257Z,101090.13
2019-01-22T12:40:21.958Z,101083.37
2019-01-22T12:42:50.498Z,101080.94
2019-01-22T12:45:22.130Z,101080.30
2019-01-22T12:47:50.624Z,101078.91
2019-01-22T12:50:25.587Z,101073.00
2019-01-22T12:52:51.774Z,101070.84
2019-01-22T12:55:20.237Z,101060.86
2019-01-22T12:57:48.705Z,101067.14
2019-01-22T13:00:26.270Z,101058.14
2019-01-22T13:02:54.795Z,101055.18
2019-01-22T13:05:32.459Z,101055.18
2019-01-22T13:08:00.937Z,101053.91
2019-01-22T13:10:29.426Z,101055.18
2019-01-22T13:12:57.915Z,101044.97
2019-01-22T13:15:26.454Z,101040.03
2019-01-22T13:17:54.918Z,101037.37
2019-01-22T13:20:23.893Z,101029.25
2019-01-22T13:22:52.358Z,101033.95
2019-01-22T13:25:20.877Z,101024.37
2019-01-22T13:27:49.372Z,101024.37
2019-01-22T13:30:20.882Z,101017.78
2019-01-22T13:32:49.732Z,101017.71
2019-01-22T13:35:18.675Z,101008.50
2019-01-22T13:37:47.135Z,101004.57
2019-01-22T13:40:16.334Z,101004.50
2019-01-22T13:42:44.894Z,101000.39
2019-01-22T13:45:33.844Z,100995.12
2019-01-22T13:48:04.863Z,100993.84
2019-01-22T13:50:33.331Z,100991.66
2019-01-22T13:53:01.872Z,100988.23
2019-01-22T13:55:32.762Z,100981.45
2019-01-22T13:58:01.248Z,100979.00
2019-01-22T14:00:30.381Z,100966.81
2019-01-22T14:03:00.705Z,100962.37
2019-01-22T14:05:29.402Z,100962.37
2019-01-22T14:07:57.942Z,100954.92
2019-01-22T14:10:26.522Z,100954.45
2019-01-22T14:12:56.608Z,100958.68
2019-01-22T14:15:36.901Z,100956.50
2019-01-22T14:18:06.197Z,100953.24
2019-01-22T14:20:34.674Z,100956.77
2019-01-22T14:23:03.189Z,100948.41
2019-01-22T14:25:31.668Z,100942.90
2019-01-22T14:28:00.124Z,100939.07
2019-01-22T14:30:31.231Z,100940.18
2019-01-22T14:32:59.691Z,100933.16
2019-01-22T14:35:28.166Z,100933.29
2019-01-22T14:37:56.911Z,100924.45
2019-01-22T14:40:25.376Z,100926.83
2019-01-22T14:42:53.916Z,100921.39
2019-01-22T14:45:23.861Z,100920.23
2019-01-22T14:47:52.388Z,100915.33
2019-01-22T14:50:29.706Z,100913.20
2019-01-22T14:52:58.176Z,100914.94
2019-01-22T14:55:26.711Z,100908.69
2019-01-22T14:57:55.311Z,100904.58
2019-01-22T15:00:25.807Z,100905.28
2019-01-22T15:02:54.910Z,100905.88
2019-01-22T15:05:23.402Z,100898.25
2019-01-22T15:07:51.882Z,100898.47
2019-01-22T15:10:20.511Z,100896.14
2019-01-22T15:12:55.046Z,100894.77
2019-01-22T15:15:23.585Z,100890.66
2019-01-22T15:17:52.046Z,100887.42
2019-01-22T15:20:25.658Z,100883.25
2019-01-22T15:22:54.123Z,100879.55
2019-01-22T15:25:22.814Z,100880.13
2019-01-22T15:27:51.473Z,100882.91
2019-01-22T15:30:23.130Z,100878.31
2019-01-22T15:32:51.670Z,100881.45
2019-01-22T15:35:20.260Z,100880.77
2019-01-22T15:37:48.888Z,100873.63
2019-01-22T15:40:20.485Z,100873.45
2019-01-22T15:42:49.150Z,100869.27
2019-01-22T15:45:17.793Z,100876.70
2019-01-22T15:47:46.348Z,100870.14
2019-01-22T15:50:17.753Z,100866.14
2019-01-22T15:52:46.324Z,100869.45
2019-01-22T15:55:20.769Z,100861.63
2019-01-22T15:57:49.426Z,100868.29
2019-01-22T16:00:20.018Z,100869.78
2019-01-22T16:02:48.701Z,100866.75
2019-01-22T16:05:17.478Z,100868.39
2019-01-22T16:07:46.037Z,100860.97
2019-01-22T16:10:14.572Z,100856.17
2019-01-22T16:12:43.170Z,100850.38
2019-01-22T16:15:16.851Z,100857.07
2019-01-22T16:17:45.459Z,100845.40
2019-01-22T16:20:16.677Z,100847.75
2019-01-22T16:22:45.229Z,100847.17
2019-01-22T16:25:14.253Z,100851.78
2019-01-22T16:27:42.873Z,100853.23
2019-01-22T16:30:16.861Z,100845.92
2019-01-22T16:32:45.411Z,100838.98
2019-01-22T16:35:16.346Z,100844.83
2019-01-22T16:37:45.957Z,100842.17
2019-01-22T16:40:16.148Z,100849.34
2019-01-22T16:42:45.445Z,100842.39
2019-01-22T16:45:19.715Z,100845.33
2019-01-22T16:47:48.276Z,100840.53
2019-01-22T16:50:16.887Z,100833.58
2019-01-22T16:52:45.521Z,100834.66
2019-01-22T16:55:19.863Z,100833.68
2019-01-22T16:57:48.452Z,100825.35
2019-01-22T17:00:20.135Z,100824.40
2019-01-22T17:02:48.746Z,100825.16
2019-01-22T17:05:17.423Z,100817.34
2019-01-22T17:07:45.990Z,100820.28
2019-01-22T17:10:19.540Z,100819.70
2019-01-22T17:12:48.373Z,100825.55
2019-01-22T17:15:17.560Z,100820.38
2019-01-22T17:17:46.485Z,100821.94
2019-01-22T17:20:20.757Z,100817.25
2019-01-22T17:22:49.319Z,100816.27
2019-01-22T17:25:17.863Z,100815.17
2019-01-22T17:27:46.439Z,100815.96
2019-01-22T17:30:17.529Z,100812.15
2019-01-22T17:32:47.720Z,100812.55
2019-01-22T17:35:16.396Z,100808.62
2019-01-22T17:37:45.049Z,100803.82
2019-01-22T17:40:16.357Z,100802.86
2019-01-22T17:42:45.296Z,100794.25
2019-01-22T17:45:14.370Z,100802.64
2019-01-22T17:47:42.932Z,100800.02
2019-01-22T17:50:13.859Z,100801.18
2019-01-22T17:52:42.427Z,100794.71
2019-01-22T17:55:12.128Z,100790.02
2019-01-22T17:57:40.722Z,100795.39
2019-01-22T18:00:18.652Z,100790.23
2019-01-22T18:02:47.243Z,100787.29
2019-01-22T18:05:20.354Z,100790.23
2019-01-22T18:07:48.972Z,100780.34
2019-01-22T18:10:20.011Z,100780.34
2019-01-22T18:12:49.009Z,100776.93
2019-01-22T18:15:17.745Z,100772.24
2019-01-22T18:17:46.407Z,100767.92
2019-01-22T18:20:17.766Z,100769.59
2019-01-22T18:22:46.322Z,100770.75
2019-01-22T18:25:15.010Z,100765.08
2019-01-22T18:27:43.560Z,100766.86
2019-01-22T18:30:25.875Z,100763.80
2019-01-22T18:32:54.708Z,100767.14
2019-01-22T18:35:38.451Z,100753.16
2019-01-22T18:38:07.064Z,100755.59
2019-01-22T18:40:35.618Z,100748.36
2019-01-22T18:43:04.205Z,100756.38
2019-01-22T18:45:32.755Z,100752.09
2019-01-22T18:48:02.324Z,100750.52
2019-01-22T18:50:30.905Z,100755.80
2019-01-22T18:52:59.458Z,100753.66
2019-01-22T18:55:28.012Z,100746.31
2019-01-22T18:57:56.778Z,100744.16
2019-01-22T19:00:25.334Z,100749.61
2019-01-22T19:02:53.897Z,100747.98
2019-01-22T19:05:22.646Z,100749.73
2019-01-22T19:07:51.285Z,100746.42
2019-01-22T19:10:28.214Z,100748.45
2019-01-22T19:12:56.822Z,100749.73
2019-01-22T19:15:25.443Z,100751.80
2019-01-22T19:17:54.045Z,100748.87
2019-01-22T19:20:22.588Z,100749.93
2019-01-22T19:22:51.157Z,100750.22
2019-01-22T19:25:21.977Z,100742.80
2019-01-22T19:27:50.535Z,100745.55
2019-01-22T19:30:44.606Z,100745.05
2019-01-22T19:33:13.161Z,100747.09
2019-01-22T19:35:41.693Z,100746.90
2019-01-22T19:38:10.287Z,100748.73
2019-01-22T19:40:38.914Z,100739.25
2019-01-22T19:43:07.469Z,100738.67
2019-01-22T19:45:36.124Z,100733.79
2019-01-22T19:48:05.254Z,100737.09
2019-01-22T19:50:33.957Z,100732.69
2019-01-22T19:53:02.619Z,100729.56
2019-01-22T19:55:31.170Z,100728.61
2019-01-22T19:57:59.717Z,100727.70
2019-01-22T20:00:36.006Z,100733.09
2019-01-22T20:03:05.496Z,100735.64
2019-01-22T20:05:34.199Z,100724.38
2019-01-22T20:08:02.856Z,100731.52
2019-01-22T20:10:31.415Z,100710.02
2019-01-22T20:13:00.139Z,100716.96
2019-01-22T20:15:28.763Z,100720.26
2019-01-22T20:17:57.296Z,100715.09
2019-01-22T20:20:25.848Z,100715.86
2019-01-22T20:22:54.435Z,100716.66
2019-01-22T20:25:22.985Z,100709.31
2019-01-22T20:27:51.530Z,100708.84
2019-01-22T20:30:26.255Z,100709.20
2019-01-22T20:32:54.816Z,100710.87
2019-01-22T20:35:23.367Z,100708.53
2019-01-22T20:37:52.390Z,100704.80
2019-01-22T20:40:21.017Z,100705.59
2019-01-22T20:42:49.556Z,100704.20
2019-01-22T20:45:23.451Z,100699.05
2019-01-22T20:47:52.000Z,100698.86
2019-01-22T20:50:20.568Z,100697.08
2019-01-22T20:52:49.340Z,100697.08
2019-01-22T20:55:20.346Z,100696.68
2019-01-22T20:57:54.836Z,100698.86
2019-01-22T21:00:23.380Z,100691.23
2019-01-22T21:02:52.010Z,100690.93
2019-01-22T21:05:25.950Z,100690.93
2019-01-22T21:07:54.595Z,100691.80
2019-01-22T21:10:25.770Z,100688.39
2019-01-22T21:12:54.397Z,100687.01
2019-01-22T21:15:23.004Z,100679.67
2019-01-22T21:17:51.553Z,100676.26
2019-01-22T21:20:20.842Z,100672.65
2019-01-22T21:22:49.482Z,100672.65
2019-01-22T21:25:22.595Z,100671.27
2019-01-22T21:27:51.203Z,100677.14
2019-01-22T21:30:22.973Z,100675.87
2019-01-22T21:32:51.520Z,100675.87
2019-01-22T21:35:20.069Z,100668.14
2019-01-22T21:37:48.651Z,100668.02
2019-01-22T21:40:17.702Z,100669.21
2019-01-22T21:42:46.316Z,100660.72
2019-01-22T21:45:23.882Z,100653.67
2019-01-22T21:47:52.434Z,100672.83
2019-01-22T21:50:20.980Z,100666.64
2019-01-22T21:52:49.587Z,100668.42
2019-01-22T21:55:20.499Z,100660.69
2019-01-22T21:57:49.065Z,100660.69
2019-01-22T22:00:25.393Z,100665.66
2019-01-22T22:02:54.022Z,100657.45
2019-01-22T22:05:25.177Z,100658.24
2019-01-22T22:07:53.946Z,100655.30
2019-01-22T22:10:22.562Z,100655.30
2019-01-22T22:12:51.179Z,100653.05
2019-01-22T22:15:25.483Z,100646.51
2019-01-22T22:17:54.039Z,100645.12
2019-01-22T22:20:22.650Z,100640.72
2019-01-22T22:22:52.713Z,100636.05
2019-01-22T22:25:22.933Z,100635.97
2019-01-22T22:27:51.753Z,100634.47
2019-01-22T22:30:34.628Z,100635.26
2019-01-22T22:33:03.258Z,100635.26
2019-01-22T22:35:31.978Z,100634.94
2019-01-22T22:38:00.545Z,100634.35
2019-01-22T22:40:29.082Z,100631.70
2019-01-22T22:42:57.659Z,100637.95
2019-01-22T22:45:26.290Z,100631.02
2019-01-22T22:47:54.919Z,100624.95
2019-01-22T22:50:29.146Z,100632.57
2019-01-22T22:52:57.702Z,100627.77
2019-01-22T22:55:26.255Z,100629.24
2019-01-22T22:57:55.024Z,100628.64
2019-01-22T23:00:43.245Z,100634.88
2019-01-22T23:03:12.180Z,100630.08
2019-01-22T23:05:40.729Z,100634.95
2019-01-22T23:08:09.276Z,100637.41
2019-01-22T23:10:37.946Z,100632.61
2019-01-22T23:13:06.573Z,100635.42
2019-01-22T23:15:35.120Z,100636.09
2019-01-22T23:18:03.932Z,100638.43
2019-01-22T23:20:32.475Z,100631.58
2019-01-22T23:23:01.029Z,100632.77
2019-01-22T23:25:29.613Z,100627.45
2019-01-22T23:27:58.167Z,100623.05
2019-01-22T23:30:26.779Z,100622.45
2019-01-22T23:32:55.364Z,100618.57
2019-01-22T23:35:23.990Z,100620.39
2019-01-22T23:37:52.534Z,100620.27
2019-01-22T23:40:21.120Z,100625.65
2019-01-22T23:42:49.666Z,100614.91
2019-01-22T23:45:18.207Z,100616.84
2019-01-22T23:47:46.816Z,100616.61
2019-01-22T23:50:15.947Z,100617.28
2019-01-22T23:52:44.509Z,100617.28
2019-01-22T23:55:13.630Z,100615.33
2019-01-22T23:57:42.184Z,100620.28
